Flight Track Log - Related Links

Times and Time Zones

All times are in EDT time to prevent confusion due to time zone crossing. See the LAK961 flight status page for this flight to view local times or setup timezone preferences in your user account.

Time Position Orientation Groundspeed Altitude Reporting Facility
EDT Latitude Longitude Course Direction KTS MPH feet Rate Location/Type
Mon 01:40:38 PM 38.9444 -99.3394 322° Northwest 223 257 8,400  Level Kansas City Center
Mon 01:41:41 PM 38.9925 -99.3986 316° Northwest 203 234 12,300 2,952 Climbing Kansas City Center
Mon 01:42:42 PM 39.0453 -99.4394 329° Northwest 213 245 14,500 2,304 Climbing Kansas City Center
Mon 01:43:46 PM 39.0992 -99.4906 324° Northwest 235 270 17,100 2,016 Climbing Kansas City Center
Mon 01:44:47 PM 39.1569 -99.5478 322° Northwest 255 293 18,700 1,452 Climbing Kansas City Center
Mon 01:45:00 PM 38.9602 -99.3910 330° Northwest  Level FlightAware Approximate
Mon 01:45:50 PM 39.2314 -99.6233 322° Northwest 290 334 20,100  Level Kansas City Center
Mon 01:46:00 PM 39.0290 -99.4457 322° Northwest  Level FlightAware Approximate
Mon 01:46:50 PM 39.3028 -99.6931 323° Northwest 318 366 21,400  Level Kansas City Center
Mon 01:47:54 PM 39.3872 -99.7775 322° Northwest 336 387 23,000 1,344 Climbing Kansas City Center
Mon 01:48:55 PM 39.4542 -99.8444 322° Northwest 340 391 24,200 1,358 Climbing Kansas City Center
Mon 01:50:11 PM 39.5422 -99.9625 314° West 342 394 26,100 1,400 Climbing Denver Center
Mon 01:51:25 PM 39.6139 -100.0628 313° West 342 394 27,700 1,500 Climbing Denver Center
Mon 01:52:27 PM 39.6939 -100.1758 313° West 336 387 29,500 1,500 Climbing Denver Center
Mon 01:53:29 PM 39.7531 -100.2578 313° West 329 379 30,800 1,283 Climbing Denver Center
Mon 01:55:34 PM 39.8767 -100.4317 314° West 317 365 33,500 1,027 Climbing Denver Center
Mon 01:56:36 PM 39.9333 -100.5106 313° West 314 361 34,000 242 Climbing Denver Center
Mon 01:57:38 PM 40.0039 -100.6106 313° West 328 377 34,000 339 Level Denver Center
Mon 01:58:40 PM 40.0667 -100.7011 312° West 342 394 34,700 794 Climbing Denver Center
Mon 01:59:54 PM 40.1364 -100.7983 313° West 327 376 35,800 971 Climbing Denver Center
Mon 02:00:56 PM 40.2131 -100.9078 305° West 320 368 36,900 1,056 Climbing Denver Center
Mon 02:01:00 PM 40.1868 -100.8921 305° West  Level FlightAware Approximate
Mon 02:01:59 PM 40.2672 -100.9867 312° West 307 353 38,000  Level Denver Center
Mon 02:05:05 PM 40.4292 -101.2206 312° West 286 329 39,800 484 Climbing Denver Center
Mon 02:06:07 PM 40.4867 -101.3039 312° West 279 321 40,000 97 Climbing Denver Center
Mon 02:07:09 PM 40.5381 -101.3775 313° West 281 323 40,000  Level Denver Center
Mon 02:08:10 PM 40.5997 -101.4686 312° West 293 337 40,000  Level Denver Center
Mon 02:09:12 PM 40.6539 -101.5483 312° West 300 345 40,000  Level Denver Center
Mon 02:10:00 PM 40.6930 -101.6108 312° West  Level FlightAware Approximate
Mon 02:10:14 PM 40.7006 -101.6164 312° West 307 353 40,000  Level Denver Center
Mon 02:11:16 PM 40.7758 -101.7286 312° West 314 361 40,000  Level Denver Center
Mon 02:12:18 PM 40.8336 -101.8122 312° West 317 365 40,000  Level Denver Center
Mon 02:13:20 PM 40.9014 -101.9136 312° West 325 374 40,000  Level Denver Center
Mon 02:14:22 PM 40.9625 -101.9994 313° West 330 380 40,000  Level Denver Center
Mon 02:15:24 PM 41.0311 -102.1036 311° West 334 384 40,000  Level Denver Center
Mon 02:16:26 PM 41.0906 -102.1914 312° West 334 384 40,000  Level Denver Center
Mon 02:17:28 PM 41.1589 -102.2956 311° West 335 386 40,000  Level Denver Center
Mon 02:18:30 PM 41.2186 -102.3842 312° West 335 386 40,000  Level Denver Center
Mon 02:19:32 PM 41.2872 -102.4889 311° West 335 386 40,000  Level Denver Center
Mon 02:20:34 PM 41.3467 -102.5767 312° West 335 386 40,000  Level Denver Center
Mon 02:21:36 PM 41.4092 -102.6717 311° West 335 386 40,000  Level Denver Center
Mon 02:22:38 PM 41.4783 -102.7764 311° West 336 387 40,000  Level Denver Center
Mon 02:23:40 PM 41.5372 -102.8681 311° West 339 390 40,000  Level Denver Center
Mon 02:25:39 PM 41.6672 -103.0631 312° West 337 388 40,000  Level Salt Lake Center
Mon 02:26:45 PM 41.7253 -103.1569 310° West 339 390 40,000  Level Denver Center
Mon 02:27:47 PM 41.7939 -103.2631 311° West 339 390 40,000  Level Denver Center
Mon 02:28:49 PM 41.8542 -103.3542 312° West 339 390 40,000  Level Denver Center
Mon 02:29:51 PM 41.9217 -103.4619 310° West 339 390 40,000  Level Denver Center
Mon 02:30:53 PM 41.9814 -103.5539 311° West 339 390 40,000  Level Denver Center
Mon 02:31:55 PM 42.0508 -103.6611 311° West 341 392 40,000  Level Denver Center
Mon 02:32:57 PM 42.1097 -103.7553 310° West 341 392 40,000  Level Denver Center
Mon 02:34:57 PM 42.2389 -103.9578 311° West 340 391 40,000  Level Salt Lake Center
Mon 02:35:58 PM 42.2989 -104.0525 311° West 345 397 40,000  Level Salt Lake Center
Mon 02:37:04 PM 42.3689 -104.1653 310° West 347 399 40,000  Level Denver Center
Mon 02:38:06 PM 42.4292 -104.2611 310° West 348 400 40,000  Level Denver Center
Mon 02:40:06 PM 42.5586 -104.4669 311° West 346 398 40,000  Level Salt Lake Center
Mon 02:41:24 PM 42.6344 -104.5925 309° West 347 399 40,000  Level Denver Center
Mon 02:42:26 PM 42.7003 -104.6994 310° West 347 399 40,000  Level Denver Center
Mon 02:43:28 PM 42.7592 -104.7942 310° West 346 398 40,000  Level Denver Center
Mon 02:44:29 PM 42.8278 -104.9061 310° West 345 397 40,000  Level Denver Center
Mon 02:45:31 PM 42.8856 -105.0008 310° West 343 395 40,000  Level Denver Center
Mon 02:46:33 PM 42.9525 -105.1100 310° West 341 392 40,000  Level Denver Center
Mon 02:47:35 PM 43.0106 -105.2064 309° West 342 394 40,000  Level Denver Center
Mon 02:48:37 PM 43.0767 -105.3161 310° West 337 388 40,000  Level Denver Center
Mon 02:49:39 PM 43.1333 -105.4111 309° West 337 388 40,000  Level Denver Center
Mon 02:50:40 PM 43.2003 -105.5225 310° West 338 389 40,000  Level Denver Center
Mon 02:51:42 PM 43.2586 -105.6186 310° West 340 391 40,000  Level Denver Center
Mon 02:52:44 PM 43.3158 -105.7147 309° West 343 395 40,000  Level Denver Center
Mon 02:53:46 PM 43.3825 -105.8269 309° West 342 394 40,000  Level Denver Center
Mon 02:54:47 PM 43.4392 -105.9217 310° West 339 390 40,000  Level Denver Center
Mon 02:55:49 PM 43.5039 -106.0331 309° West 334 384 40,000  Level Denver Center
Mon 02:56:51 PM 43.5594 -106.1267 309° West 333 383 40,000  Level Denver Center
Mon 02:57:53 PM 43.6231 -106.2358 309° West 331 381 40,000  Level Denver Center
Mon 02:58:55 PM 43.6758 -106.3303 308° West 329 379 40,000  Level Denver Center
Mon 02:59:58 PM 43.7397 -106.4383 309° West 324 373 40,000  Level Denver Center
Mon 03:01:00 PM 43.7933 -106.5297 309° West 324 373 40,000  Level Denver Center
Mon 03:02:02 PM 43.8531 -106.6369 308° West 319 367 40,000  Level Denver Center
Mon 03:02:34 PM 43.8789 -106.6833 308° West 318 366 40,000  Level Salt Lake Center
Mon 03:03:16 PM 43.9047 -106.7267 310° West 316 364 40,000  Level Denver Center
Mon 03:04:18 PM 43.9739 -106.8444 309° West 313 360 40,000  Level Denver Center
Mon 03:05:20 PM 44.0208 -106.9267 308° West 311 358 40,000  Level Denver Center
Mon 03:06:22 PM 44.0842 -107.0386 308° West 311 358 40,000  Level Denver Center
Mon 03:07:24 PM 44.1392 -107.1331 309° West 312 359 40,000  Level Denver Center
Mon 03:08:26 PM 44.1903 -107.2267 307° West 307 353 40,000  Level Denver Center
Mon 03:09:27 PM 44.2417 -107.3158 309° West 298 343 40,000  Level Denver Center
Mon 03:10:29 PM 44.2825 -107.3900 308° West 298 343 40,000  Level Denver Center
Mon 03:11:31 PM 44.3436 -107.4983 308° West 298 343 40,000  Level Denver Center
Mon 03:12:51 PM 44.4150 -107.6269 308° West 298 343 40,000  Level Salt Lake Center
Mon 03:13:53 PM 44.4653 -107.7186 308° West 298 343 40,000  Level Salt Lake Center
Mon 03:14:55 PM 44.5169 -107.8100 308° West 298 343 40,000 -97 Level Salt Lake Center
Mon 03:15:57 PM 44.5667 -107.9022 307° West 298 343 39,800 -968 Descending Salt Lake Center
Mon 03:16:59 PM 44.6308 -108.0203 307° West 310 357 38,000 -1,659 Descending Salt Lake Center
Mon 03:18:00 PM 44.6900 -108.1258 308° West 333 383 36,400 -1,561 Descending Salt Lake Center
Mon 03:19:02 PM 44.7492 -108.2350 307° West 343 395 34,800 -1,548 Descending Salt Lake Center
Mon 03:20:04 PM 44.8075 -108.3417 308° West 343 395 33,200 -1,548 Descending Salt Lake Center
Mon 03:21:06 PM 44.8639 -108.4431 308° West 335 386 31,600 -1,694 Descending Salt Lake Center
Mon 03:22:08 PM 44.9183 -108.5447 307° West 329 379 29,700 -1,902 Descending Salt Lake Center
Mon 03:23:09 PM 44.9767 -108.6369 312° West 319 367 27,700 -1,805 Descending Salt Lake Center
Mon 03:24:11 PM 45.0347 -108.7244 313° West 311 358 26,000 -1,645 Descending Salt Lake Center
Mon 03:25:13 PM 45.0883 -108.8125 311° West 301 346 24,300 -1,839 Descending Salt Lake Center
Mon 03:26:15 PM 45.1503 -108.9131 311° West 284 327 22,200 -1,854 Descending Salt Lake Center
Mon 03:27:16 PM 45.2006 -108.9928 312° West 275 316 20,500 -1,622 Descending Salt Lake Center
Mon 03:29:20 PM 45.2986 -109.1511 311° West 260 299 17,200 -1,459 Descending Salt Lake Center
Mon 03:30:21 PM 45.3461 -109.2261 312° West 259 298 16,000 -585 Descending Salt Lake Center
Mon 03:31:23 PM 45.3933 -109.3008 312° West 241 277 16,000  Level Salt Lake Center
Mon 03:32:25 PM 45.4347 -109.3703 310° West 234 269 16,000  Level Salt Lake Center
Mon 03:33:27 PM 45.4797 -109.4425 312° West 231 266 16,000  Level Salt Lake Center
Mon 03:34:28 PM 45.5214 -109.5097 312° West 230 265 16,000 -195 Level Salt Lake Center
Mon 03:35:30 PM 45.5608 -109.5744 311° West 220 253 15,600 -1,645 Descending Salt Lake Center
Mon 03:37:34 PM 45.6442 -109.7111 311° West 222 255 10,900 -2,205 Descending Salt Lake Center
Mon 03:38:35 PM 45.6839 -109.7761 311° West 227 261 8,800 -1,415 Descending Salt Lake Center
Mon 03:39:37 PM 45.7239 -109.8342 315° West 220 253 8,000 -1,161 Descending Salt Lake Center
Mon 03:40:39 PM 45.7642 -109.8994 312° West 199 229 6,400 -976 Descending Salt Lake Center
Mon 03:41:40 PM 45.7728 -109.9569 282° West 168 193 6,000 -293 Descending Salt Lake Center
Mon 03:42:42 PM 45.7969 -109.9917 315° West 138 159 5,800 -194 Descending Salt Lake Center
Mon 03:44:00 PM 45.8000 -109.9667 325° Northwest  Level FlightAware Approximate
Mon 03:51:00 PM 45.8064 -109.9783 325° Northwest  Level Estimated
Mon 03:52:00 PM 45.8064 -109.9783 325° Northwest  Level Estimated
Mon 03:53:00 PM 45.8064 -109.9783 325° Northwest  Level Estimated
Mon 03:54:00 PM 45.8064 -109.9783 325° Northwest  Level Estimated
Mon 03:55:00 PM 45.8064 -109.9783 325° Northwest  Level Estimated
Mon 03:56:00 PM 45.8064 -109.9783 325° Northwest  Level Estimated
Mon 03:57:00 PM 45.8064 -109.9783 325° Northwest  Level Estimated
Mon 03:58:00 PM 45.8064 -109.9783 325° Northwest  Level Estimated
Mon 03:59:00 PM 45.8064 -109.9783 325° Northwest  Level Estimated
Mon 04:00:00 PM 45.8064 -109.9783 325° Northwest  Level Estimated
Mon 04:01:00 PM 45.8064 -109.9783 325° Northwest  Level Estimated
Mon 04:02:00 PM 45.8064 -109.9783 325° Northwest  Level Estimated
Mon 04:03:00 PM 45.8064 -109.9783 325° Northwest  Level Estimated
Mon 04:04:00 PM 45.8064 -109.9783 325° Northwest  Level Estimated
Mon 04:05:00 PM 45.8064 -109.9783 325° Northwest  Level Estimated
Mon 04:06:00 PM 45.8064 -109.9783 325° Northwest  Level Estimated
Mon 04:07:00 PM 45.8064 -109.9783 325° Northwest  Level Estimated
Mon 04:08:00 PM 45.8064 -109.9783 325° Northwest  Level Estimated
Mon 04:09:00 PM 45.8064 -109.9783 325° Northwest  Level Estimated
Mon 04:10:00 PM 45.8064 -109.9783 325° Northwest  Level Estimated

Login

Don't have an account? Register now (free) for customized features, flight alerts, and more!